Streeter, Texas
Current Conditions -  °F | °C
As of 6:15 AM on Thursday 29 Jan 2015 (Local Time) from KBBD Reporting Station
Clear Clear  
Wind Chill: 52°   Ceiling: Unl
Heat Index: 52°   Visibility: 10mi
Dew Point: 41°   Wind: 0mph
Humidity: 67%   Direction: NA
Pressure: 30.16"   Gusts: NA
Location:  30.7049°N, 99.2387°W
Report Text: KBBD 291215Z AUTO 00000KT 10SM CLR 11/05 A3016 RMK
Loading
Personal Weather Stations






























Interactive Weather Map New forecast layout! Learn more

10-Day Weather Forecast

Advertisements
Track Severe Weather on mobile